Time;durP1;ratioP1;P1;durP2;ratioP2;P2;SDS_P1;SDS_P2;PMS_P1;PMS_P2;Temp;Humidity;BMP_temperature;BMP_pressure;BME280_temperature;BME280_humidity;BME280_pressure;Samples;Min_cycle;Max_cycle;Signal;HPM_P1;HPM_P2
2021/03/21 00:05:11;;;;;;;38.10;17.60;;;;;;;-4.76;63.96;98953.10;507965;1100;105400;-42
2021/03/21 00:15:15;;;;;;;47.77;18.10;;;;;;;-4.61;64.15;98935.56;508027;1101;104632;-40
2021/03/21 00:25:22;;;;;;;32.53;16.43;;;;;;;-4.64;64.38;98928.08;507828;1101;104335;-42
2021/03/21 00:35:28;;;;;;;36.80;16.43;;;;;;;-4.64;64.29;98910.02;507988;1101;104607;-41
2021/03/21 00:45:33;;;;;;;43.17;18.40;;;;;;;-4.70;64.41;98893.28;508251;1100;104683;-41
2021/03/21 00:55:38;;;;;;;37.57;17.80;;;;;;;-4.71;64.83;98860.69;508029;1101;104639;-41
2021/03/21 01:05:49;;;;;;;37.63;16.32;;;;;;;-4.75;64.84;98851.55;508122;1102;104342;-40
2021/03/21 01:15:55;;;;;;;32.53;15.83;;;;;;;-4.76;64.90;98829.28;507912;1102;104674;-39
2021/03/21 01:26:00;;;;;;;40.20;15.03;;;;;;;-4.84;65.09;98802.50;508174;1102;104399;-39
2021/03/21 01:36:13;;;;;;;35.83;16.33;;;;;;;-4.83;65.45;98780.92;507884;1101;104332;-40
2021/03/21 01:46:17;;;;;;;34.03;15.43;;;;;;;-4.74;65.73;98769.81;508013;1101;104635;-41
2021/03/21 01:56:22;;;;;;;36.87;16.10;;;;;;;-4.73;65.71;98746.50;507926;1102;104711;-42
2021/03/21 02:06:33;;;;;;;37.87;17.50;;;;;;;-4.77;65.82;98721.06;507906;1101;104309;-40
2021/03/21 02:16:40;;;;;;;39.67;15.50;;;;;;;-4.69;65.79;98703.19;508789;1093;104341;-40
2021/03/21 02:27:10;;;;;;;39.05;17.00;;;;;;;-4.77;65.74;98679.80;508084;1101;104312;-39
2021/03/21 02:37:17;;;;;;;21.25;11.08;;;;;;;-4.69;66.15;98654.17;508358;1102;104758;-40
2021/03/21 02:47:27;;;;;;;28.33;13.07;;;;;;;-4.47;66.19;98642.80;508077;1102;104338;-40
2021/03/21 02:57:44;;;;;;;29.17;14.17;;;;;;;-4.31;66.06;98622.42;508153;1102;104333;-40
2021/03/21 03:07:52;;;;;;;20.87;10.30;;;;;;;-4.27;66.03;98600.53;507905;1101;104335;-42
2021/03/21 03:17:57;;;;;;;23.50;11.17;;;;;;;-4.18;65.49;98567.94;508065;1101;104427;-40
2021/03/21 03:28:04;;;;;;;25.97;10.30;;;;;;;-4.10;65.90;98545.63;508103;1102;104672;-40
2021/03/21 03:38:10;;;;;;;24.85;11.05;;;;;;;-3.96;65.54;98530.66;508003;1102;104703;-41
2021/03/21 03:48:20;;;;;;;19.47;9.40;;;;;;;-3.91;65.37;98518.12;508382;1101;104335;-40
2021/03/21 03:58:25;;;;;;;18.30;9.60;;;;;;;-3.85;65.36;98500.29;507937;1101;104638;-41
2021/03/21 04:08:29;;;;;;;22.43;9.30;;;;;;;-3.72;65.62;98474.14;507869;1101;104373;-39
2021/03/21 04:18:37;;;;;;;19.27;8.67;;;;;;;-3.63;65.29;98459.55;507955;1102;104348;-43
2021/03/21 04:28:44;;;;;;;24.20;9.73;;;;;;;-3.64;65.17;98450.97;508213;1101;104309;-40
2021/03/21 04:38:50;;;;;;;20.60;9.70;;;;;;;-3.58;64.90;98429.72;507811;1102;104291;-42
2021/03/21 04:48:56;;;;;;;19.00;9.57;;;;;;;-3.50;64.94;98423.84;508189;1101;104782;-41
2021/03/21 04:59:06;;;;;;;24.60;10.50;;;;;;;-3.44;65.06;98400.80;508224;1102;104405;-42
2021/03/21 05:09:12;;;;;;;22.40;10.00;;;;;;;-3.33;64.51;98383.44;507751;1102;104334;-43
2021/03/21 05:19:25;;;;;;;20.80;9.20;;;;;;;-3.19;64.73;98381.16;507886;1101;104606;-41
2021/03/21 05:29:44;;;;;;;23.73;10.73;;;;;;;-3.12;64.30;98371.02;507918;1101;104373;-42
2021/03/21 05:39:51;;;;;;;19.80;11.23;;;;;;;-3.03;64.33;98352.03;508107;1101;104686;-41
2021/03/21 05:50:16;;;;;;;22.53;10.20;;;;;;;-2.90;64.04;98339.50;508025;1102;104501;-41
2021/03/21 06:00:40;;;;;;;21.03;9.70;;;;;;;-2.70;64.14;98336.72;507833;1101;104345;-41
2021/03/21 06:11:23;;;;;;;26.03;10.67;;;;;;;-2.57;64.12;98317.23;508101;1100;104453;-42
2021/03/21 06:21:39;;;;;;;17.60;9.23;;;;;;;-2.45;64.01;98304.01;507922;1101;104351;-40
2021/03/21 06:32:05;;;;;;;25.37;10.83;;;;;;;-2.34;63.74;98288.21;508279;1101;104297;-43
2021/03/21 06:42:42;;;;;;;12.00;6.77;;;;;;;-2.26;64.02;98275.28;507759;1101;104309;-41
2021/03/21 06:53:01;;;;;;;19.53;9.47;;;;;;;-2.14;63.82;98258.47;507790;1101;105823;-43
2021/03/21 07:03:47;;;;;;;22.70;8.77;;;;;;;-2.00;63.79;98249.28;508055;1101;104335;-41
2021/03/21 07:14:30;;;;;;;22.73;10.20;;;;;;;-1.92;63.84;98237.14;507720;1102;104318;-40
2021/03/21 07:25:07;;;;;;;23.10;8.07;;;;;;;-1.86;63.67;98236.52;507862;1101;104379;-42
2021/03/21 07:35:25;;;;;;;17.45;9.20;;;;;;;-1.78;63.41;98220.16;507883;1102;104380;-41
2021/03/21 07:45:34;;;;;;;14.63;8.20;;;;;;;-1.57;64.08;98198.94;508042;1101;104628;-40
2021/03/21 07:55:41;;;;;;;18.98;8.33;;;;;;;-1.28;63.99;98203.59;507927;1102;104338;-40
2021/03/21 08:05:46;;;;;;;18.70;10.33;;;;;;;-1.20;64.07;98194.98;508119;1101;104258;-42
2021/03/21 08:15:54;;;;;;;17.03;8.87;;;;;;;-1.28;64.88;98172.47;507971;1101;104895;-40
2021/03/21 08:26:00;;;;;;;21.33;11.17;;;;;;;-1.12;65.36;98182.01;508227;1102;104387;-42
2021/03/21 08:36:18;;;;;;;22.47;11.37;;;;;;;-1.18;65.69;98151.52;507888;1102;104642;-42
2021/03/21 08:46:25;;;;;;;16.97;8.43;;;;;;;-1.33;66.83;98154.82;507796;1102;104632;-41
2021/03/21 08:56:29;;;;;;;22.27;10.27;;;;;;;-1.38;66.96;98146.73;508008;1101;104360;-41
2021/03/21 09:06:36;;;;;;;19.27;10.77;;;;;;;-1.37;66.93;98132.79;508511;1101;104310;-42
2021/03/21 09:16:59;;;;;;;25.30;12.97;;;;;;;-1.28;68.03;98116.22;507755;1102;104399;-39
2021/03/21 09:27:16;;;;;;;22.73;12.23;;;;;;;-1.10;67.49;98118.59;508154;1101;104762;-41
2021/03/21 09:37:22;;;;;;;24.67;12.03;;;;;;;-0.81;67.92;98112.78;508048;1102;104399;-40
2021/03/21 09:47:32;;;;;;;24.87;13.83;;;;;;;-0.76;68.16;98100.09;507804;1102;104354;-41
2021/03/21 09:58:09;;;;;;;29.13;14.50;;;;;;;-0.67;68.84;98093.09;508062;1101;104261;-40
2021/03/21 10:08:14;;;;;;;28.13;14.37;;;;;;;-0.45;68.83;98086.30;508044;1102;104483;-41
2021/03/21 10:18:39;;;;;;;30.57;13.57;;;;;;;-0.27;68.27;98088.59;508011;1101;104757;-41
2021/03/21 10:28:51;;;;;;;24.37;13.63;;;;;;;-0.14;68.93;98089.63;507990;1101;104335;-40
2021/03/21 10:38:58;;;;;;;32.90;15.00;;;;;;;0.06;68.38;98070.95;507895;1102;104335;-42
2021/03/21 10:49:02;;;;;;;29.70;13.57;;;;;;;0.32;68.61;98045.34;507968;1101;104665;-40
2021/03/21 10:59:22;;;;;;;22.67;13.63;;;;;;;0.64;68.58;98045.96;507899;1102;104319;-40
2021/03/21 11:30:16;;;;;;;;;;;;;;;0.99;68.36;98002.75;507895;1101;104750;-39
2021/03/21 11:40:23;;;;;;;22.10;12.55;;;;;;;0.85;67.85;98001.79;507952;1100;104358;-40
2021/03/21 11:50:30;;;;;;;25.05;13.90;;;;;;;0.77;68.46;97991.50;507922;1100;104351;-41
2021/03/21 12:00:38;;;;;;;21.80;12.65;;;;;;;0.92;68.38;97980.04;507845;1102;104334;-41
2021/03/21 12:10:45;;;;;;;32.80;15.90;;;;;;;1.02;68.08;97971.14;507891;1102;104667;-40
2021/03/21 12:31:14;;;;;;;32.63;16.67;;;;;;;0.91;68.66;97951.59;507767;1102;104319;-41
2021/03/21 12:41:34;;;;;;;28.30;15.65;;;;;;;0.83;68.71;97933.50;507873;1102;104389;-43
2021/03/21 12:51:38;;;;;;;;;;;;;;;0.74;69.00;97927.62;508007;1101;104307;-41
2021/03/21 13:01:44;;;;;;;36.20;18.17;;;;;;;0.93;69.20;97910.56;508201;1102;104705;-41
2021/03/21 13:11:49;;;;;;;33.77;16.13;;;;;;;1.05;69.16;97908.29;507922;1101;104386;-41
2021/03/21 13:21:54;;;;;;;33.67;17.37;;;;;;;1.21;69.67;97901.03;507889;1101;104717;-41
2021/03/21 13:31:59;;;;;;;39.40;18.97;;;;;;;1.18;69.84;97890.16;507917;1101;104383;-42
2021/03/21 13:42:06;;;;;;;36.60;20.30;;;;;;;1.15;69.88;97880.13;507880;1102;104453;-41
2021/03/21 13:52:11;;;;;;;36.17;19.27;;;;;;;1.05;70.09;97871.84;507926;1101;104309;-42
2021/03/21 14:02:16;;;;;;;34.00;19.53;;;;;;;1.08;70.65;97867.06;508292;1102;104389;-42
2021/03/21 14:12:21;;;;;;;48.00;25.47;;;;;;;1.07;70.57;97852.44;507915;1102;104681;-41
2021/03/21 14:22:26;;;;;;;42.33;22.00;;;;;;;1.14;70.59;97849.88;507978;1102;104424;-43
2021/03/21 14:32:31;;;;;;;33.53;22.00;;;;;;;1.17;70.79;97833.87;507858;1101;104383;-42
2021/03/21 14:42:37;;;;;;;42.10;22.70;;;;;;;1.08;71.00;97816.79;508116;1101;104694;-40
2021/03/21 15:03:01;;;;;;;;;;;;;;;0.85;72.10;97806.59;507919;1102;104386;-40
2021/03/21 15:13:06;;;;;;;30.53;19.30;;;;;;;0.88;72.65;97798.41;507918;1101;105165;-40
2021/03/21 15:23:14;;;;;;;40.60;22.45;;;;;;;0.80;72.45;97801.95;507934;1101;104319;-42
2021/03/21 15:33:20;;;;;;;27.75;17.95;;;;;;;0.69;72.62;97791.23;508103;1102;104309;-40
2021/03/21 15:43:25;;;;;;;43.77;23.40;;;;;;;0.52;73.43;97788.91;508074;1102;104334;-40
2021/03/21 15:53:30;;;;;;;29.43;17.87;;;;;;;0.37;74.05;97772.55;507967;1101;104702;-41
2021/03/21 16:03:35;;;;;;;40.20;22.73;;;;;;;0.30;73.60;97785.50;507996;1102;104664;-40
2021/03/21 16:13:39;;;;;;;39.05;22.20;;;;;;;0.31;74.30;97778.50;507957;1102;104695;-41
2021/03/21 16:23:44;;;;;;;46.33;26.77;;;;;;;0.23;74.12;97784.61;507991;1101;104690;-40
2021/03/21 16:33:49;;;;;;;31.87;20.70;;;;;;;0.16;74.25;97780.34;508144;1102;104344;-40
2021/03/21 16:43:54;;;;;;;38.80;23.63;;;;;;;0.06;74.74;97766.84;507999;1101;104347;-40
2021/03/21 16:53:59;;;;;;;39.20;24.47;;;;;;;0.03;74.38;97772.41;507785;1102;104399;-40
2021/03/21 17:04:05;;;;;;;50.47;26.20;;;;;;;-0.02;75.11;97785.93;507927;1100;104341;-40
2021/03/21 17:24:29;;;;;;;35.48;21.87;;;;;;;-0.04;75.53;97783.52;508031;1101;104616;-40
2021/03/21 17:34:34;;;;;;;38.67;24.30;;;;;;;-0.06;75.61;97790.70;507787;1101;104374;-40
2021/03/21 17:55:00;;;;;;;44.67;28.47;;;;;;;0.01;75.18;97787.39;508049;1101;104312;-39
2021/03/21 18:05:06;;;;;;;43.13;28.03;;;;;;;0.00;75.98;97796.98;508219;1101;104603;-39
2021/03/21 18:15:10;;;;;;;55.90;31.83;;;;;;;0.06;76.02;97798.03;507886;1102;104679;-42
2021/03/21 18:25:15;;;;;;;72.60;41.80;;;;;;;0.04;75.91;97811.22;508187;1099;104807;-41
2021/03/21 18:35:20;;;;;;;62.37;36.50;;;;;;;0.07;75.78;97810.84;508027;1101;104357;-41
2021/03/21 18:45:29;;;;;;;57.07;33.40;;;;;;;0.10;76.04;97827.87;508030;1101;104258;-42
2021/03/21 18:55:35;;;;;;;62.20;33.98;;;;;;;0.15;75.75;97835.91;508077;1102;104271;-40
2021/03/21 19:05:41;;;;;;;75.50;36.40;;;;;;;0.21;76.14;97840.38;507864;1102;104693;-42
2021/03/21 19:15:46;;;;;;;60.43;32.07;;;;;;;0.23;76.40;97851.40;507950;1101;104708;-40
2021/03/21 19:25:51;;;;;;;63.70;32.33;;;;;;;0.26;76.51;97869.27;507996;1101;104702;-42
2021/03/21 19:35:56;;;;;;;51.27;32.17;;;;;;;0.36;76.80;97869.77;508122;1101;104402;-40
2021/03/21 19:46:04;;;;;;;48.37;27.60;;;;;;;0.37;76.03;97873.97;508032;1102;104334;-43
2021/03/21 19:56:09;;;;;;;69.25;31.85;;;;;;;0.32;77.12;97884.13;507790;1102;104341;-40
2021/03/21 20:06:13;;;;;;;68.03;29.23;;;;;;;0.34;77.76;97892.55;508349;1101;104377;-42
2021/03/21 20:16:18;;;;;;;48.87;25.47;;;;;;;0.38;80.00;97906.79;508018;1101;104399;-39
2021/03/21 20:26:26;;;;;;;28.97;15.53;;;;;;;0.42;81.08;97918.44;508012;1101;104737;-41
2021/03/21 20:36:31;;;;;;;34.77;17.93;;;;;;;0.44;81.20;97937.27;508134;1101;104772;-42
2021/03/21 20:46:36;;;;;;;36.47;17.33;;;;;;;0.47;81.66;97944.70;507959;1102;104427;-42
2021/03/21 20:56:44;;;;;;;35.03;16.57;;;;;;;0.50;81.87;97959.16;508093;1100;104335;-42
2021/03/21 21:06:49;;;;;;;34.45;17.70;;;;;;;0.49;82.58;97971.36;508023;1102;104373;-40
2021/03/21 21:16:54;;;;;;;34.87;17.23;;;;;;;0.52;82.65;97985.80;507754;1101;104348;-40
2021/03/21 21:26:59;;;;;;;39.40;18.00;;;;;;;0.52;81.92;98009.20;508022;1101;104661;-41
2021/03/21 21:37:03;;;;;;;36.67;17.97;;;;;;;0.53;81.61;98006.42;508448;1100;104351;-40
2021/03/21 21:47:07;;;;;;;33.47;16.00;;;;;;;0.54;82.60;98020.23;507943;1102;104335;-40
2021/03/21 21:57:13;;;;;;;30.07;15.70;;;;;;;0.49;82.34;98038.99;507917;1102;104603;-41
2021/03/21 22:07:18;;;;;;;29.97;15.40;;;;;;;0.41;82.67;98053.86;507889;1101;105393;-40
2021/03/21 22:17:22;;;;;;;30.10;15.47;;;;;;;0.30;82.93;98049.92;507900;1102;104337;-43
2021/03/21 22:27:28;;;;;;;32.60;17.73;;;;;;;0.16;83.07;98053.30;507862;1102;104402;-39
2021/03/21 22:37:33;;;;;;;34.10;17.40;;;;;;;-0.04;83.39;98056.41;507941;1102;104386;-39
2021/03/21 22:47:38;;;;;;;26.60;12.30;;;;;;;-0.22;83.36;98062.92;507909;1101;104692;-40
2021/03/21 22:57:44;;;;;;;22.73;11.03;;;;;;;-0.42;83.08;98059.98;508028;1101;104641;-40
2021/03/21 23:07:50;;;;;;;16.30;8.90;;;;;;;-0.62;82.72;98060.44;507881;1101;104313;-38
2021/03/21 23:17:55;;;;;;;25.63;11.67;;;;;;;-0.77;83.61;98067.33;507790;1101;104354;-41
2021/03/21 23:28:00;;;;;;;22.93;9.63;;;;;;;-0.90;82.50;98081.86;507987;1101;104332;-40
2021/03/21 23:38:06;;;;;;;21.07;10.03;;;;;;;-1.04;83.15;98091.97;507981;1101;104338;-40
2021/03/21 23:48:12;;;;;;;25.63;11.23;;;;;;;-1.13;83.24;98099.97;508011;1101;104347;-42
2021/03/21 23:58:19;;;;;;;18.83;7.83;;;;;;;-1.26;82.52;98106.48;508279;1101;104337;-42
